Аэропорт: Ульяновск-Центральный. Ульяновск

ICAO: UWLL

METAR:
2022-01-28 09:00:00
UWLL 280900Z 19004MPS 9000 -SN SCT040 M07/M09 Q1018 R20/490139 NOSIG RMK QFE753/1004
METAR:
2022-01-28 07:55:00
TAF UWLL 280755Z 2809/2909 17003G08MPS 6000 -SN FEW005 BKN016 TXM06/2810Z TNM16/2903Z TEMPO 2809/2818 2000 SN BR BKN010 TEMPO 2821/2909 BKN007